createdAt,value
2022-08-25T00:03:12.572Z,20.8
2022-08-25T00:13:13.283Z,20.6
2022-08-25T00:33:14.064Z,20.2
2022-08-25T00:43:14.978Z,20.2
2022-08-25T00:53:15.245Z,20
2022-08-25T01:03:15.680Z,19.9
2022-08-25T01:13:16.748Z,19.7
2022-08-25T01:23:16.844Z,19.8
2022-08-25T01:33:17.054Z,19.5
2022-08-25T01:43:17.647Z,19.3
2022-08-25T01:53:18.199Z,19.1
2022-08-25T02:03:18.784Z,19
2022-08-25T02:13:19.108Z,19
2022-08-25T02:23:20.133Z,18.9
2022-08-25T02:33:20.315Z,18.9
2022-08-25T02:53:21.749Z,18.9
2022-08-25T03:03:22.285Z,19
2022-08-25T03:23:22.891Z,19
2022-08-25T03:33:23.167Z,19
2022-08-25T03:43:24.130Z,18.8
2022-08-25T03:53:24.821Z,18.9
2022-08-25T04:03:25.228Z,18.9
2022-08-25T04:13:25.594Z,18.8
2022-08-25T04:23:26.406Z,18.7
2022-08-25T04:33:27.346Z,18.6
2022-08-25T04:53:28.670Z,18.6
2022-08-25T05:03:29.074Z,18.6
2022-08-25T05:13:29.836Z,18.7
2022-08-25T05:23:30.601Z,19.1
2022-08-25T05:33:32.387Z,19.6
2022-08-25T05:43:31.343Z,20.2
2022-08-25T05:53:33.742Z,20.6
2022-08-25T06:03:32.724Z,21.1
2022-08-25T06:13:33.663Z,21.6
2022-08-25T06:23:33.883Z,22
2022-08-25T06:33:34.580Z,22.3
2022-08-25T06:53:35.977Z,23.1
2022-08-25T07:03:36.711Z,23.4
2022-08-25T07:23:37.601Z,24.6
2022-08-25T07:43:38.485Z,25.5
2022-08-25T07:53:39.125Z,26
2022-08-25T08:03:50.052Z,26.3
2022-08-25T08:13:41.371Z,26.7
2022-08-25T08:23:41.110Z,27.4
2022-08-25T08:33:41.474Z,27.4
2022-08-25T08:43:42.157Z,28
2022-08-25T08:53:42.516Z,28.4
2022-08-25T09:03:43.084Z,28.8
2022-08-25T09:13:43.579Z,28.8
2022-08-25T09:33:44.342Z,29.5
2022-08-25T09:43:44.454Z,29.6
2022-08-25T09:53:45.265Z,30
2022-08-25T10:03:45.818Z,30.1
2022-08-25T10:13:46.020Z,30.4
2022-08-25T10:23:46.641Z,30.3
2022-08-25T10:33:47.544Z,30.4
2022-08-25T10:43:48.389Z,30.7
2022-08-25T10:53:49.222Z,30.7
2022-08-25T11:03:49.626Z,30.8
2022-08-25T11:13:49.828Z,31.3
2022-08-25T11:23:50.690Z,30.9
2022-08-25T11:33:51.485Z,30.8
2022-08-25T11:43:51.639Z,31.3
2022-08-25T11:53:51.837Z,31.3
2022-08-25T12:03:52.921Z,31.8
2022-08-25T12:13:53.139Z,31.6
2022-08-25T12:23:54.016Z,31.9
2022-08-25T12:33:54.421Z,32
2022-08-25T12:43:54.631Z,32.2
2022-08-25T12:53:55.672Z,32.6
2022-08-25T13:03:55.884Z,32.7
2022-08-25T13:13:56.031Z,32.6
2022-08-25T13:24:01.223Z,32.4
2022-08-25T13:33:56.792Z,32.6
2022-08-25T13:43:56.995Z,32.1
2022-08-25T13:53:58.391Z,31.9
2022-08-25T14:04:01.263Z,31.7
2022-08-25T14:13:58.833Z,32.3
2022-08-25T14:23:59.098Z,32.6
2022-08-25T14:44:00.579Z,31.8
2022-08-25T15:04:01.321Z,31.4
2022-08-25T15:14:02.056Z,31.8
2022-08-25T15:24:03.032Z,31.9
2022-08-25T15:34:03.584Z,32.1
2022-08-25T15:44:03.889Z,32
2022-08-25T16:04:05.578Z,31.9
2022-08-25T16:14:05.717Z,31.6
2022-08-25T16:24:07.585Z,31.6
2022-08-25T16:44:06.479Z,31.4
2022-08-25T16:54:07.109Z,31.3
2022-08-25T17:04:08.138Z,31.2
2022-08-25T17:14:08.974Z,31.1
2022-08-25T17:24:08.592Z,30.9
2022-08-25T17:34:08.837Z,30.9
2022-08-25T17:44:09.141Z,30.7
2022-08-25T17:54:09.689Z,30.4
2022-08-25T18:04:15.687Z,30.1
2022-08-25T18:14:11.428Z,29.8
2022-08-25T18:24:13.381Z,29.4
2022-08-25T18:34:13.566Z,29.1
2022-08-25T18:44:15.547Z,28.7
2022-08-25T18:54:19.084Z,28.4
2022-08-25T19:04:13.986Z,28.1
2022-08-25T19:24:15.173Z,27.5
2022-08-25T19:34:15.990Z,27.1
2022-08-25T19:44:16.235Z,26.7
2022-08-25T19:54:16.455Z,26.4
2022-08-25T20:04:16.687Z,26.1
2022-08-25T20:14:17.134Z,25.7
2022-08-25T20:24:17.243Z,25.6
2022-08-25T20:34:17.934Z,25.4
2022-08-25T20:44:18.658Z,25.5
2022-08-25T21:04:19.656Z,25.4
2022-08-25T21:14:19.904Z,25.1
2022-08-25T21:24:20.470Z,25
2022-08-25T21:34:20.950Z,24.9
2022-08-25T21:44:21.070Z,24.6
2022-08-25T21:54:23.485Z,24.4
2022-08-25T22:14:23.443Z,23.6
2022-08-25T22:34:30.447Z,23
2022-08-25T22:44:25.535Z,22.8
2022-08-25T22:54:26.603Z,22.5
2022-08-25T23:04:27.533Z,22.3
2022-08-25T23:14:28.165Z,22
2022-08-25T23:24:29.625Z,21.7
2022-08-25T23:34:29.806Z,21.5
2022-08-25T23:44:30.275Z,21.4
2022-08-25T23:54:30.909Z,21.2
